createdAt,value
2022-09-23T00:00:19.991Z,91.22
2022-09-23T00:02:49.007Z,91.88
2022-09-23T00:05:15.590Z,92.40
2022-09-23T00:07:42.028Z,92.15
2022-09-23T00:10:08.686Z,91.15
2022-09-23T00:12:35.174Z,89.99
2022-09-23T00:15:02.058Z,90.63
2022-09-23T00:17:28.485Z,89.88
2022-09-23T00:19:55.391Z,89.00
2022-09-23T00:22:21.813Z,89.49
2022-09-23T00:24:48.286Z,89.59
2022-09-23T00:27:14.721Z,89.85
2022-09-23T00:29:41.215Z,89.75
2022-09-23T00:32:07.702Z,89.75
2022-09-23T00:34:34.270Z,89.31
2022-09-23T00:37:00.753Z,89.87
2022-09-23T00:39:27.186Z,90.53
2022-09-23T00:41:54.107Z,91.70
2022-09-23T00:44:39.418Z,92.13
2022-09-23T00:47:10.694Z,90.65
2022-09-23T00:49:37.129Z,91.11
2022-09-23T00:52:08.717Z,90.47
2022-09-23T00:54:35.379Z,91.32
2022-09-23T00:57:03.650Z,92.21
2022-09-23T00:59:30.098Z,90.70
2022-09-23T01:01:57.627Z,90.14
2022-09-23T01:04:26.080Z,90.74
2022-09-23T01:06:52.725Z,91.27
2022-09-23T01:09:19.637Z,91.94
2022-09-23T01:11:50.246Z,91.53
2022-09-23T01:14:35.050Z,91.26
2022-09-23T01:17:13.681Z,90.93
2022-09-23T01:19:49.631Z,89.88
2022-09-23T01:22:34.541Z,90.65
2022-09-23T01:25:19.790Z,90.09
2022-09-23T01:27:52.199Z,90.33
2022-09-23T01:30:34.064Z,89.95
2022-09-23T01:33:18.627Z,89.15
2022-09-23T01:35:53.030Z,89.14
2022-09-23T01:38:19.421Z,89.29
2022-09-23T01:40:48.653Z,89.60
2022-09-23T01:43:20.615Z,89.00
2022-09-23T01:45:48.049Z,89.60
2022-09-23T01:48:50.338Z,89.04
2022-09-23T01:51:20.916Z,88.89
2022-09-23T01:53:57.988Z,90.04
2022-09-23T01:56:27.347Z,90.84
2022-09-23T01:59:01.558Z,90.05
2022-09-23T02:01:39.114Z,90.56
2022-09-23T02:04:09.263Z,90.92
2022-09-23T02:06:46.459Z,90.54
2022-09-23T02:09:15.697Z,90.69
2022-09-23T02:11:45.345Z,90.38
2022-09-23T02:14:30.678Z,89.94
2022-09-23T02:16:59.336Z,88.92
2022-09-23T02:19:27.070Z,89.28
2022-09-23T02:22:02.300Z,90.42
2022-09-23T02:24:34.580Z,90.22
2022-09-23T02:27:07.082Z,91.31
2022-09-23T02:29:33.496Z,90.66
2022-09-23T02:32:08.356Z,89.45
2022-09-23T02:34:40.898Z,88.86
2022-09-23T02:37:26.257Z,88.71
2022-09-23T02:40:01.786Z,88.28
2022-09-23T02:42:37.925Z,88.99
2022-09-23T02:45:04.562Z,89.49
2022-09-23T02:47:34.175Z,89.62
2022-09-23T02:50:01.394Z,90.41
2022-09-23T02:52:27.885Z,90.36
2022-09-23T02:54:54.659Z,89.58
2022-09-23T02:57:21.486Z,89.63
2022-09-23T02:59:48.132Z,88.87
2022-09-23T03:02:14.606Z,89.37
2022-09-23T03:04:53.527Z,89.47
2022-09-23T03:07:33.574Z,89.58
2022-09-23T03:09:59.971Z,89.28
2022-09-23T03:12:46.164Z,90.12
2022-09-23T03:15:23.107Z,89.63
2022-09-23T03:18:08.334Z,89.93
2022-09-23T03:20:35.118Z,89.28
2022-09-23T03:23:05.019Z,89.28
2022-09-23T03:25:33.209Z,89.30
2022-09-23T03:28:01.101Z,89.50
2022-09-23T03:30:28.817Z,90.43
2022-09-23T03:32:57.081Z,89.44
2022-09-23T03:35:24.548Z,89.91
2022-09-23T03:37:55.666Z,89.21
2022-09-23T03:40:30.025Z,89.67
2022-09-23T03:42:57.491Z,89.64
2022-09-23T03:45:27.497Z,90.29
2022-09-23T03:47:54.046Z,89.88
2022-09-23T03:50:21.291Z,89.88
2022-09-23T03:52:48.934Z,89.33
2022-09-23T03:55:17.005Z,89.94
2022-09-23T03:57:43.542Z,90.10
2022-09-23T04:00:10.442Z,89.79
2022-09-23T04:02:40.593Z,89.43
2022-09-23T04:05:07.865Z,90.01
2022-09-23T04:07:34.413Z,90.69
2022-09-23T04:10:00.819Z,90.87
2022-09-23T04:12:27.269Z,91.64
2022-09-23T04:14:53.692Z,90.68
2022-09-23T04:17:21.962Z,90.56
2022-09-23T04:19:48.384Z,90.35
2022-09-23T04:22:14.863Z,89.99
2022-09-23T04:24:41.350Z,90.15
2022-09-23T04:27:07.762Z,89.65
2022-09-23T04:29:34.250Z,90.18
2022-09-23T04:32:00.770Z,90.21
2022-09-23T04:34:27.390Z,90.31
2022-09-23T04:36:53.854Z,89.39
2022-09-23T04:39:20.310Z,89.39
2022-09-23T04:41:47.238Z,89.66
2022-09-23T04:44:14.229Z,89.51
2022-09-23T04:46:41.230Z,88.95
2022-09-23T04:49:07.970Z,88.65
2022-09-23T04:51:34.957Z,89.19
2022-09-23T04:54:01.481Z,88.88
2022-09-23T04:56:29.359Z,88.56
2022-09-23T04:58:58.194Z,89.01
2022-09-23T05:01:26.982Z,89.08
2022-09-23T05:03:55.120Z,89.36
2022-09-23T05:06:21.776Z,89.44
2022-09-23T05:08:49.948Z,88.88
2022-09-23T05:11:16.466Z,88.87
2022-09-23T05:13:42.991Z,89.72
2022-09-23T05:16:12.092Z,90.63
2022-09-23T05:18:41.108Z,91.13
2022-09-23T05:21:07.597Z,91.69
2022-09-23T05:23:34.027Z,91.41
2022-09-23T05:26:01.669Z,94.04
2022-09-23T05:28:32.725Z,89.64
2022-09-23T05:31:06.557Z,87.93
2022-09-23T05:33:33.454Z,86.75
2022-09-23T05:36:00.843Z,87.40
2022-09-23T05:38:28.047Z,87.30
2022-09-23T05:40:58.528Z,87.31
2022-09-23T05:43:25.734Z,87.67
2022-09-23T05:45:52.569Z,88.58
2022-09-23T05:48:19.038Z,88.10
2022-09-23T05:50:54.363Z,88.79
2022-09-23T05:53:21.116Z,88.82
2022-09-23T05:55:47.575Z,88.18
2022-09-23T05:58:14.358Z,86.67
2022-09-23T06:00:41.399Z,85.96
2022-09-23T06:03:14.683Z,86.82
2022-09-23T06:05:41.320Z,85.98
2022-09-23T06:08:08.108Z,85.14
2022-09-23T06:10:41.990Z,82.04
2022-09-23T06:13:08.878Z,80.31
2022-09-23T06:15:36.003Z,78.15
2022-09-23T06:18:02.922Z,76.78
2022-09-23T06:20:29.596Z,77.40
2022-09-23T06:22:58.066Z,75.39
2022-09-23T06:25:24.522Z,73.83
2022-09-23T06:27:54.493Z,72.87
2022-09-23T06:30:21.630Z,70.76
2022-09-23T06:32:49.826Z,73.54
2022-09-23T06:35:24.994Z,72.97
2022-09-23T06:37:53.680Z,70.22
2022-09-23T06:40:20.639Z,69.97
2022-09-23T06:42:51.490Z,67.88
2022-09-23T06:45:18.750Z,67.61
2022-09-23T06:47:45.152Z,67.84
2022-09-23T06:50:14.684Z,67.11
2022-09-23T06:52:42.084Z,65.33
2022-09-23T06:55:10.108Z,66.21
2022-09-23T06:57:36.548Z,65.31
2022-09-23T07:00:03.320Z,61.08
2022-09-23T07:02:29.904Z,62.99
2022-09-23T07:04:57.395Z,62.62
2022-09-23T07:07:23.873Z,63.63
2022-09-23T07:09:50.293Z,64.10
2022-09-23T07:12:16.696Z,61.49
2022-09-23T07:14:43.134Z,62.98
2022-09-23T07:17:09.546Z,61.48
2022-09-23T07:19:36.476Z,59.19
2022-09-23T07:22:02.979Z,62.36
2022-09-23T07:24:29.398Z,62.79
2022-09-23T07:26:55.842Z,60.46
2022-09-23T07:29:22.277Z,56.72
2022-09-23T07:31:48.781Z,56.61
2022-09-23T07:34:15.265Z,55.85
2022-09-23T07:36:41.951Z,57.67
2022-09-23T07:39:09.844Z,54.12
2022-09-23T07:41:37.078Z,56.23
2022-09-23T07:44:03.722Z,53.07
2022-09-23T07:46:31.467Z,54.48
2022-09-23T07:48:58.040Z,56.18
2022-09-23T07:51:35.968Z,53.41
2022-09-23T07:54:03.096Z,54.45
2022-09-23T07:56:30.084Z,50.85
2022-09-23T07:59:05.733Z,50.39
2022-09-23T08:01:33.735Z,49.99
2022-09-23T08:04:02.118Z,48.02
2022-09-23T08:06:28.590Z,50.17
2022-09-23T08:08:57.206Z,49.94
2022-09-23T08:11:27.610Z,49.76
2022-09-23T08:13:57.218Z,50.59
2022-09-23T08:16:23.787Z,50.43
2022-09-23T08:18:50.567Z,49.90
2022-09-23T08:21:21.058Z,47.10
2022-09-23T08:23:47.648Z,48.25
2022-09-23T08:26:21.014Z,45.82
2022-09-23T08:28:49.029Z,44.26
2022-09-23T08:31:15.729Z,48.67
2022-09-23T08:33:42.243Z,47.88
2022-09-23T08:36:08.666Z,46.04
2022-09-23T08:38:35.157Z,46.41
2022-09-23T08:41:21.903Z,47.21
2022-09-23T08:43:54.793Z,45.56
2022-09-23T08:46:23.767Z,43.06
2022-09-23T08:48:50.443Z,42.05
2022-09-23T08:51:24.050Z,44.36
2022-09-23T08:53:50.553Z,45.53
2022-09-23T08:56:18.469Z,43.61
2022-09-23T08:59:00.113Z,42.20
2022-09-23T09:01:35.823Z,42.13
2022-09-23T09:04:22.573Z,43.10
2022-09-23T09:06:53.485Z,42.56
2022-09-23T09:09:30.417Z,42.73
2022-09-23T09:12:03.781Z,40.12
2022-09-23T09:14:33.031Z,40.27
2022-09-23T09:17:25.908Z,41.39
2022-09-23T09:19:56.753Z,43.70
2022-09-23T09:22:42.574Z,41.59
2022-09-23T09:25:19.046Z,40.83
2022-09-23T09:27:45.728Z,38.99
2022-09-23T09:30:14.489Z,39.93
2022-09-23T09:32:47.355Z,40.36
2022-09-23T09:35:36.766Z,38.59
2022-09-23T09:38:03.874Z,41.59
2022-09-23T09:40:30.417Z,40.45
2022-09-23T09:42:56.898Z,40.04
2022-09-23T09:45:28.395Z,40.19
2022-09-23T09:48:00.427Z,39.70
2022-09-23T09:50:44.536Z,39.35
2022-09-23T09:53:34.725Z,37.56
2022-09-23T09:56:08.845Z,37.16
2022-09-23T09:58:42.072Z,37.13
2022-09-23T10:01:09.093Z,37.15
2022-09-23T10:03:43.173Z,37.72
2022-09-23T10:06:17.737Z,37.73
2022-09-23T10:09:04.538Z,35.81
2022-09-23T10:11:31.952Z,37.13
2022-09-23T10:14:05.282Z,37.81
2022-09-23T10:16:34.310Z,35.76
2022-09-23T10:19:02.076Z,35.56
2022-09-23T10:21:36.262Z,36.00
2022-09-23T10:24:05.566Z,35.46
2022-09-23T10:26:33.584Z,35.48
2022-09-23T10:29:04.698Z,36.56
2022-09-23T10:31:34.944Z,35.83
2022-09-23T10:34:23.102Z,38.42
2022-09-23T10:37:02.530Z,36.20
2022-09-23T10:39:47.370Z,36.03
2022-09-23T10:42:40.760Z,35.65
2022-09-23T10:45:38.610Z,34.51
2022-09-23T10:48:19.674Z,33.63
2022-09-23T10:50:49.919Z,34.71
2022-09-23T10:53:35.714Z,34.06
2022-09-23T10:56:08.320Z,33.71
2022-09-23T10:58:37.905Z,32.21
2022-09-23T11:01:23.215Z,32.60
2022-09-23T11:03:52.555Z,32.44
2022-09-23T11:06:28.891Z,32.63
2022-09-23T11:09:01.223Z,33.50
2022-09-23T11:11:32.557Z,34.00
2022-09-23T11:14:13.160Z,35.53
2022-09-23T11:16:40.330Z,32.25
2022-09-23T11:19:12.971Z,32.02
2022-09-23T11:21:58.226Z,31.25
2022-09-23T11:24:50.976Z,32.87
2022-09-23T11:27:26.565Z,31.96
2022-09-23T11:30:13.020Z,33.00
2022-09-23T11:32:48.727Z,30.92
2022-09-23T11:35:19.360Z,31.25
2022-09-23T11:37:55.782Z,31.00
2022-09-23T11:40:32.151Z,31.00
2022-09-23T11:43:01.571Z,30.75
2022-09-23T11:45:31.443Z,33.58
2022-09-23T11:47:59.927Z,31.16
2022-09-23T11:50:29.577Z,30.60
2022-09-23T11:53:18.705Z,30.74
2022-09-23T11:55:57.833Z,30.51
2022-09-23T11:58:34.791Z,30.46
2022-09-23T12:01:03.852Z,31.77
2022-09-23T12:03:42.482Z,31.89
2022-09-23T12:06:24.685Z,31.14
2022-09-23T12:08:54.221Z,31.83
2022-09-23T12:11:29.730Z,33.18
2022-09-23T12:14:03.059Z,29.34
2022-09-23T12:16:29.575Z,30.19
2022-09-23T12:18:59.168Z,32.77
2022-09-23T12:21:50.346Z,32.93
2022-09-23T12:24:36.162Z,30.46
2022-09-23T12:27:06.841Z,29.99
2022-09-23T12:29:35.490Z,29.81
2022-09-23T12:32:09.926Z,29.54
2022-09-23T12:34:40.445Z,29.47
2022-09-23T12:37:07.072Z,28.61
2022-09-23T12:39:35.475Z,29.26
2022-09-23T12:42:03.516Z,29.57
2022-09-23T12:44:41.617Z,29.89
2022-09-23T12:47:14.192Z,30.52
2022-09-23T12:49:41.622Z,31.83
2022-09-23T12:52:17.258Z,32.13
2022-09-23T12:54:44.694Z,31.68
2022-09-23T12:57:12.171Z,33.17
2022-09-23T12:59:51.171Z,28.21
2022-09-23T13:02:37.270Z,28.03
2022-09-23T13:05:28.629Z,29.78
2022-09-23T13:07:58.922Z,28.42
2022-09-23T13:10:29.298Z,28.94
2022-09-23T13:12:57.835Z,31.58
2022-09-23T13:15:24.253Z,32.03
2022-09-23T13:17:50.723Z,32.02
2022-09-23T13:20:20.590Z,30.95
2022-09-23T13:22:50.026Z,30.54
2022-09-23T13:25:19.250Z,29.08
2022-09-23T13:27:47.639Z,28.58
2022-09-23T13:30:14.049Z,30.61
2022-09-23T13:32:48.489Z,28.62
2022-09-23T13:35:35.692Z,28.93
2022-09-23T13:38:32.630Z,29.37
2022-09-23T13:41:04.647Z,28.46
2022-09-23T13:43:40.840Z,30.18
2022-09-23T13:46:34.046Z,32.86
2022-09-23T13:49:00.680Z,30.48
2022-09-23T13:51:30.071Z,30.06
2022-09-23T13:53:58.089Z,29.26
2022-09-23T13:56:26.070Z,29.13
2022-09-23T13:58:52.912Z,30.16
2022-09-23T14:01:32.948Z,28.95
2022-09-23T14:03:59.812Z,30.69
2022-09-23T14:06:29.750Z,30.30
2022-09-23T14:08:57.301Z,30.44
2022-09-23T14:11:29.465Z,30.01
2022-09-23T14:13:56.577Z,30.71
2022-09-23T14:16:26.311Z,32.10
2022-09-23T14:18:56.531Z,30.27
2022-09-23T14:21:34.833Z,29.98
2022-09-23T14:24:18.547Z,29.64
2022-09-23T14:27:08.135Z,29.52
2022-09-23T14:29:38.729Z,29.82
2022-09-23T14:32:06.781Z,29.57
2022-09-23T14:34:44.598Z,28.97
2022-09-23T14:37:35.789Z,29.41
2022-09-23T14:40:02.783Z,28.45
2022-09-23T14:42:31.625Z,30.98
2022-09-23T14:44:58.132Z,30.66
2022-09-23T14:47:25.235Z,31.06
2022-09-23T14:50:10.306Z,31.56
2022-09-23T14:52:36.738Z,31.42
2022-09-23T14:55:03.529Z,30.17
2022-09-23T14:57:31.322Z,31.39
2022-09-23T15:00:08.739Z,31.36
2022-09-23T15:02:35.285Z,32.17
2022-09-23T15:05:15.685Z,33.72
2022-09-23T15:07:44.105Z,31.84
2022-09-23T15:10:17.097Z,32.10
2022-09-23T15:12:45.594Z,32.72
2022-09-23T15:15:13.375Z,33.02
2022-09-23T15:17:39.975Z,33.91
2022-09-23T15:20:19.015Z,34.55
2022-09-23T15:22:46.449Z,35.15
2022-09-23T15:25:18.440Z,34.17
2022-09-23T15:28:23.688Z,34.56
2022-09-23T15:30:50.360Z,34.33
2022-09-23T15:33:16.815Z,34.25
2022-09-23T15:35:46.396Z,34.67
2022-09-23T15:38:12.953Z,35.11
2022-09-23T15:40:40.303Z,36.20
2022-09-23T15:43:21.139Z,38.17
2022-09-23T15:45:50.324Z,36.25
2022-09-23T15:48:17.850Z,37.07
2022-09-23T15:50:47.422Z,37.58
2022-09-23T15:53:16.071Z,40.94
2022-09-23T15:55:42.560Z,43.50
2022-09-23T15:58:09.097Z,44.15
2022-09-23T16:00:36.478Z,47.42
2022-09-23T16:03:04.241Z,47.08
2022-09-23T16:05:36.161Z,47.77
2022-09-23T16:08:08.497Z,49.08
2022-09-23T16:10:36.024Z,49.03
2022-09-23T16:13:04.878Z,49.82
2022-09-23T16:15:31.909Z,51.57
2022-09-23T16:17:59.133Z,52.33
2022-09-23T16:20:28.495Z,51.62
2022-09-23T16:23:02.563Z,52.38
2022-09-23T16:25:31.853Z,53.23
2022-09-23T16:27:58.413Z,53.62
2022-09-23T16:30:29.142Z,54.25
2022-09-23T16:32:56.122Z,55.34
2022-09-23T16:35:24.127Z,55.62
2022-09-23T16:37:51.271Z,56.24
2022-09-23T16:40:22.188Z,56.71
2022-09-23T16:42:49.386Z,57.21
2022-09-23T16:45:17.773Z,57.23
2022-09-23T16:47:44.800Z,59.04
2022-09-23T16:50:11.990Z,60.39
2022-09-23T16:52:38.522Z,60.92
2022-09-23T16:55:05.243Z,62.16
2022-09-23T16:57:31.688Z,62.02
2022-09-23T17:00:16.825Z,63.55
2022-09-23T17:03:01.775Z,63.81
2022-09-23T17:05:28.248Z,64.27
2022-09-23T17:07:54.805Z,63.62
2022-09-23T17:10:21.528Z,63.58
2022-09-23T17:12:47.945Z,63.53
2022-09-23T17:15:14.396Z,63.57
2022-09-23T17:17:40.951Z,62.47
2022-09-23T17:20:07.594Z,63.10
2022-09-23T17:22:34.310Z,62.23
2022-09-23T17:25:02.183Z,63.79
2022-09-23T17:27:28.761Z,65.82
2022-09-23T17:29:55.642Z,65.55
2022-09-23T17:32:22.086Z,67.01
2022-09-23T17:34:48.560Z,67.53
2022-09-23T17:37:15.217Z,67.81
2022-09-23T17:39:42.500Z,66.13
2022-09-23T17:42:09.435Z,67.69
2022-09-23T17:44:36.238Z,67.12
2022-09-23T17:47:03.661Z,67.92
2022-09-23T17:49:35.213Z,68.62
2022-09-23T17:52:05.314Z,67.89
2022-09-23T17:54:32.345Z,67.82
2022-09-23T17:56:59.798Z,68.36
2022-09-23T17:59:26.667Z,68.82
2022-09-23T18:01:53.381Z,69.06
2022-09-23T18:04:20.189Z,70.76
2022-09-23T18:06:47.324Z,70.65
2022-09-23T18:09:14.118Z,69.99
2022-09-23T18:11:42.120Z,71.73
2022-09-23T18:14:13.089Z,72.19
2022-09-23T18:16:40.323Z,70.13
2022-09-23T18:19:07.853Z,71.07
2022-09-23T18:21:35.719Z,72.04
2022-09-23T18:24:28.119Z,71.61
2022-09-23T18:26:52.785Z,72.03
2022-09-23T18:29:19.665Z,73.70
2022-09-23T18:31:47.403Z,73.28
2022-09-23T18:34:16.233Z,72.48
2022-09-23T18:36:43.250Z,74.28
2022-09-23T18:39:09.810Z,73.18
2022-09-23T18:41:36.441Z,74.43
2022-09-23T18:44:03.461Z,75.43
2022-09-23T18:46:30.425Z,76.03
2022-09-23T18:49:15.960Z,75.03
2022-09-23T18:51:48.564Z,76.14
2022-09-23T18:54:16.014Z,75.84
2022-09-23T18:56:43.177Z,75.32
2022-09-23T18:59:12.514Z,74.76
2022-09-23T19:01:39.105Z,74.10
2022-09-23T19:04:06.672Z,74.52
2022-09-23T19:06:33.564Z,75.31
2022-09-23T19:09:00.233Z,76.07
2022-09-23T19:11:26.863Z,75.72
2022-09-23T19:13:57.945Z,75.15
2022-09-23T19:16:24.961Z,75.79
2022-09-23T19:18:52.118Z,75.62
2022-09-23T19:21:20.461Z,76.72
2022-09-23T19:23:48.257Z,76.70
2022-09-23T19:26:16.352Z,76.02
2022-09-23T19:28:47.520Z,75.91
2022-09-23T19:31:16.847Z,76.30
2022-09-23T19:33:48.519Z,75.94
2022-09-23T19:36:16.823Z,77.38
2022-09-23T19:38:44.326Z,79.07
2022-09-23T19:41:11.213Z,78.43
2022-09-23T19:43:37.815Z,76.85
2022-09-23T19:46:04.616Z,77.16
2022-09-23T19:48:31.093Z,77.33
2022-09-23T19:50:57.558Z,77.48
2022-09-23T19:53:28.024Z,78.56
2022-09-23T19:55:56.081Z,78.85
2022-09-23T19:58:23.163Z,79.31
2022-09-23T20:00:49.662Z,77.57
2022-09-23T20:03:17.594Z,78.89
2022-09-23T20:05:44.162Z,78.57
2022-09-23T20:08:10.613Z,77.63
2022-09-23T20:10:40.239Z,78.17
2022-09-23T20:13:07.475Z,79.58
2022-09-23T20:15:33.901Z,78.51
2022-09-23T20:18:00.339Z,79.27
2022-09-23T20:20:26.782Z,80.12
2022-09-23T20:22:55.072Z,80.70
2022-09-23T20:25:21.647Z,79.20
2022-09-23T20:27:49.442Z,79.64
2022-09-23T20:30:16.099Z,79.81
2022-09-23T20:32:44.741Z,80.12
2022-09-23T20:35:11.461Z,81.38
2022-09-23T20:37:37.957Z,82.42
2022-09-23T20:40:04.787Z,84.12
2022-09-23T20:42:31.905Z,83.72
2022-09-23T20:44:58.482Z,81.95
2022-09-23T20:47:24.959Z,81.36
2022-09-23T20:49:53.361Z,80.94
2022-09-23T20:52:21.461Z,81.39
2022-09-23T20:54:50.437Z,80.97
2022-09-23T20:57:18.085Z,80.21
2022-09-23T20:59:44.585Z,79.39
2022-09-23T21:02:11.135Z,79.42
2022-09-23T21:04:37.798Z,79.35
2022-09-23T21:07:04.359Z,79.71
2022-09-23T21:09:33.857Z,80.84
2022-09-23T21:12:00.423Z,81.93
2022-09-23T21:14:26.927Z,81.15
2022-09-23T21:16:54.876Z,81.39
2022-09-23T21:19:21.354Z,81.90
2022-09-23T21:21:47.758Z,82.48
2022-09-23T21:27:03.353Z,80.91
2022-09-23T21:29:29.811Z,82.55
2022-09-23T21:31:56.225Z,82.23
2022-09-23T21:34:23.404Z,83.72
2022-09-23T21:36:49.810Z,82.67
2022-09-23T21:39:16.258Z,81.97
2022-09-23T21:41:42.821Z,81.76
2022-09-23T21:44:09.411Z,81.70
2022-09-23T21:46:36.439Z,82.10
2022-09-23T21:49:03.665Z,82.50
2022-09-23T21:51:36.374Z,83.41
2022-09-23T21:54:02.803Z,84.74
2022-09-23T21:56:30.203Z,84.80
2022-09-23T21:58:57.798Z,84.56
2022-09-23T22:01:25.992Z,84.48
2022-09-23T22:03:54.346Z,83.59
2022-09-23T22:06:22.335Z,84.26
2022-09-23T22:08:50.681Z,83.59
2022-09-23T22:11:37.305Z,84.07
2022-09-23T22:14:04.629Z,83.65
2022-09-23T22:16:31.277Z,82.73
2022-09-23T22:18:59.154Z,82.88
2022-09-23T22:21:26.662Z,83.75
2022-09-23T22:23:53.758Z,83.48
2022-09-23T22:26:20.244Z,82.77
2022-09-23T22:29:05.451Z,83.19
2022-09-23T22:31:50.368Z,84.81
2022-09-23T22:34:47.424Z,84.12
2022-09-23T22:37:03.638Z,84.04
2022-09-23T22:39:30.475Z,84.56
2022-09-23T22:41:58.791Z,85.58
2022-09-23T22:44:25.658Z,85.11
2022-09-23T22:46:52.376Z,84.22
2022-09-23T22:49:19.733Z,84.62
2022-09-23T22:51:46.580Z,84.69
2022-09-23T22:54:12.998Z,84.01
2022-09-23T22:56:39.434Z,84.29
2022-09-23T22:59:06.853Z,84.25
2022-09-23T23:01:33.807Z,84.33
2022-09-23T23:04:03.545Z,83.83
2022-09-23T23:06:35.897Z,83.47
2022-09-23T23:09:05.411Z,84.00
2022-09-23T23:11:32.000Z,83.79
2022-09-23T23:14:02.276Z,84.24
2022-09-23T23:16:29.512Z,84.10
2022-09-23T23:18:56.454Z,83.92
2022-09-23T23:21:22.880Z,83.51
2022-09-23T23:23:50.702Z,83.60
2022-09-23T23:26:20.016Z,84.23
2022-09-23T23:28:46.674Z,84.60
2022-09-23T23:31:15.794Z,84.77
2022-09-23T23:33:42.443Z,85.01
2022-09-23T23:36:09.631Z,84.89
2022-09-23T23:38:37.919Z,85.16
2022-09-23T23:41:05.459Z,84.87
2022-09-23T23:43:32.055Z,84.89
2022-09-23T23:46:00.261Z,85.09
2022-09-23T23:48:28.049Z,85.92
2022-09-23T23:50:58.666Z,86.44
2022-09-23T23:53:26.358Z,85.91
2022-09-23T23:55:52.792Z,85.88
2022-09-23T23:58:19.316Z,86.64
